Time;durP1;ratioP1;P1;durP2;ratioP2;P2;SDS_P1;SDS_P2;PMS_P1;PMS_P2;Temp;Humidity;BMP_temperature;BMP_pressure;BME280_temperature;BME280_humidity;BME280_pressure;Samples;Min_cycle;Max_cycle;Signal;HPM_P1;HPM_P2
2023/09/19 00:00:47;;;;;;;5.97;2.22;;;;;;;18.97;66.00;98842.75;4951306;29;20564;-82
2023/09/19 00:03:15;;;;;;;9.43;2.35;;;;;;;18.99;65.85;98848.75;4951808;29;20051;-82
2023/09/19 00:05:44;;;;;;;8.40;2.47;;;;;;;19.01;65.72;98846.75;4952943;29;20051;-81
2023/09/19 00:08:15;;;;;;;12.90;2.90;;;;;;;19.03;65.96;98855.44;4952910;29;20051;-82
2023/09/19 00:10:43;;;;;;;6.50;2.30;;;;;;;19.05;65.63;98853.44;4952710;29;20055;-82
2023/09/19 00:13:13;;;;;;;6.20;2.00;;;;;;;19.06;65.89;98852.44;4952206;29;20154;-81
2023/09/19 00:15:48;;;;;;;11.10;2.80;;;;;;;19.10;65.70;98858.31;4951530;29;20044;-82
2023/09/19 00:18:20;;;;;;;9.57;2.20;;;;;;;19.12;65.81;98859.81;4951695;29;20074;-81
2023/09/19 00:20:51;;;;;;;8.20;2.63;;;;;;;19.15;65.58;98858.63;4954834;28;20081;-81
2023/09/19 00:23:19;;;;;;;10.00;2.30;;;;;;;19.17;65.66;98863.81;4954699;29;20049;-81
2023/09/19 00:25:46;;;;;;;7.88;2.35;;;;;;;19.19;65.54;98878.66;4956489;29;20106;-82
2023/09/19 00:28:14;;;;;;;10.20;2.85;;;;;;;19.19;65.18;98867.97;4956370;29;20051;-82
2023/09/19 00:30:43;;;;;;;9.05;2.67;;;;;;;19.19;65.18;98885.81;4956306;29;20428;-81
2023/09/19 00:33:15;;;;;;;12.15;3.10;;;;;;;19.20;65.04;98871.47;4955377;29;20059;-81
2023/09/19 00:35:48;;;;;;;9.93;2.97;;;;;;;19.17;64.22;98879.81;4954961;29;20051;-81
2023/09/19 00:38:21;;;;;;;8.70;3.10;;;;;;;19.18;64.80;98873.47;4956295;29;20134;-82
2023/09/19 00:40:48;;;;;;;12.40;3.00;;;;;;;19.17;64.58;98879.81;4956011;29;20403;-81
2023/09/19 00:43:14;;;;;;;8.60;2.95;;;;;;;19.15;64.81;98885.31;4955414;29;20560;-82
2023/09/19 00:45:47;;;;;;;11.77;3.00;;;;;;;19.11;64.22;98889.31;4954707;29;20059;-82
2023/09/19 00:48:17;;;;;;;8.35;2.50;;;;;;;19.09;64.57;98889.47;4956048;29;20058;-82
2023/09/19 00:50:45;;;;;;;9.20;2.33;;;;;;;19.09;64.51;98893.94;4954818;29;20091;-83
2023/09/19 00:53:20;;;;;;;8.65;2.58;;;;;;;19.04;63.99;98897.09;4955469;28;20047;-81
2023/09/19 00:55:49;;;;;;;7.25;2.35;;;;;;;19.06;64.32;98897.78;4955610;29;20055;-82
2023/09/19 00:58:18;;;;;;;10.13;2.83;;;;;;;19.04;64.52;98889.09;4955738;29;20055;-82
2023/09/19 01:00:45;;;;;;;9.30;2.55;;;;;;;19.02;64.49;98899.94;4955250;29;20047;-82
2023/09/19 01:03:13;;;;;;;12.10;2.63;;;;;;;19.02;64.27;98909.75;4955142;29;20063;-83
2023/09/19 01:05:40;;;;;;;9.63;2.47;;;;;;;19.00;63.94;98909.09;4955678;29;20051;-82
2023/09/19 01:08:07;;;;;;;15.18;2.95;;;;;;;18.99;64.11;98905.56;4954389;29;20117;-82
2023/09/19 01:10:33;;;;;;;5.88;2.50;;;;;;;18.96;63.92;98913.06;4955557;29;20047;-82
2023/09/19 01:13:21;;;;;;;11.15;2.45;;;;;;;18.89;63.20;98911.03;4953812;29;20051;-81
2023/09/19 01:16:04;;;;;;;12.55;2.92;;;;;;;18.87;63.34;98918.38;4955623;29;20615;-82
2023/09/19 01:18:43;;;;;;;7.43;2.30;;;;;;;18.85;63.46;98923.06;4955492;29;20097;-82
2023/09/19 01:21:28;;;;;;;8.73;2.55;;;;;;;18.77;62.91;98931.03;4954995;28;20309;-82
2023/09/19 01:24:22;;;;;;;8.25;2.28;;;;;;;18.73;63.20;98927.00;4954986;29;20059;-82
2023/09/19 01:27:14;;;;;;;10.00;2.20;;;;;;;18.69;63.19;98934.47;4955408;29;20093;-82
2023/09/19 01:29:50;;;;;;;7.20;1.83;;;;;;;18.69;63.65;98933.66;4955166;29;20058;-81
2023/09/19 01:32:22;;;;;;;12.05;2.50;;;;;;;18.63;63.40;98935.13;4953660;28;20198;-82
2023/09/19 01:34:52;;;;;;;9.10;2.90;;;;;;;18.59;63.48;98931.13;4955063;28;20050;-82
2023/09/19 01:37:25;;;;;;;11.32;2.70;;;;;;;18.55;63.94;98945.75;4954988;29;20135;-82
2023/09/19 01:40:20;;;;;;;11.07;2.85;;;;;;;18.48;63.23;98957.06;4955120;28;20067;-81
2023/09/19 01:43:08;;;;;;;7.32;2.38;;;;;;;18.48;63.86;98953.56;4953202;29;20058;-82
2023/09/19 01:46:13;;;;;;;9.10;2.78;;;;;;;18.43;63.82;98958.53;4955038;29;20061;-82
2023/09/19 01:48:49;;;;;;;11.40;2.83;;;;;;;18.42;64.11;98955.03;4954651;29;20054;-81
2023/09/19 01:51:31;;;;;;;12.05;2.90;;;;;;;18.39;63.66;98950.00;4954382;29;20419;-80
2023/09/19 01:54:03;;;;;;;10.40;2.63;;;;;;;18.39;64.03;98957.16;4953227;29;20062;-82
2023/09/19 01:56:51;;;;;;;9.40;2.72;;;;;;;18.36;63.89;98953.00;4954864;28;20105;-82
2023/09/19 01:59:24;;;;;;;11.82;2.75;;;;;;;18.39;64.07;98960.66;4954546;29;20051;-82
2023/09/19 02:01:53;;;;;;;11.05;3.20;;;;;;;18.40;64.24;98953.50;4954029;29;20548;-82
2023/09/19 02:04:19;;;;;;;9.10;2.50;;;;;;;18.40;64.71;98948.19;4953053;29;20158;-82
2023/09/19 02:06:47;;;;;;;11.25;2.72;;;;;;;18.40;64.38;98958.84;4953351;29;20051;-81
2023/09/19 02:09:14;;;;;;;14.68;2.88;;;;;;;18.40;64.36;98954.34;4954472;29;20093;-82
2023/09/19 02:11:41;;;;;;;8.77;2.72;;;;;;;18.41;64.51;98955.16;4952859;29;20055;-82
2023/09/19 02:14:08;;;;;;;9.98;2.42;;;;;;;18.44;64.50;98961.03;4954232;29;20114;-81
2023/09/19 02:16:35;;;;;;;11.35;2.47;;;;;;;18.43;64.34;98958.53;4954354;29;20089;-81
2023/09/19 02:19:05;;;;;;;8.13;2.40;;;;;;;18.44;63.93;98954.88;4954498;28;20047;-81
2023/09/19 02:21:32;;;;;;;11.40;2.78;;;;;;;18.41;64.25;98948.03;4953154;29;20496;-82
2023/09/19 02:23:59;;;;;;;11.50;2.38;;;;;;;18.42;64.23;98956.84;4953584;29;20615;-82
2023/09/19 02:26:27;;;;;;;10.35;2.88;;;;;;;18.41;64.22;98961.34;4952934;29;20504;-82
2023/09/19 02:28:54;;;;;;;10.63;2.67;;;;;;;18.41;64.04;98965.81;4953004;29;20463;-81
2023/09/19 02:31:20;;;;;;;9.27;2.65;;;;;;;18.41;64.19;98960.50;4953065;29;20058;-81
2023/09/19 02:33:47;;;;;;;7.93;2.70;;;;;;;18.42;64.01;98962.16;4953590;29;20051;-82
2023/09/19 02:36:16;;;;;;;11.30;2.58;;;;;;;18.40;63.93;98966.84;4953958;29;20099;-82
2023/09/19 02:38:43;;;;;;;10.07;2.63;;;;;;;18.39;63.79;98967.84;4952673;29;20055;-83
2023/09/19 02:41:10;;;;;;;9.05;2.60;;;;;;;18.38;63.76;98976.81;4954043;29;20057;-81
2023/09/19 02:43:36;;;;;;;8.52;2.45;;;;;;;18.36;64.18;98975.13;4953219;28;20043;-82
2023/09/19 02:46:03;;;;;;;11.45;2.53;;;;;;;18.34;64.03;98981.63;4954002;29;20187;-81
2023/09/19 02:48:31;;;;;;;13.27;3.25;;;;;;;18.31;63.95;98985.44;4953746;29;20047;-83
2023/09/19 02:50:58;;;;;;;13.32;2.83;;;;;;;18.31;64.07;98985.44;4953741;29;20047;-82
2023/09/19 02:53:25;;;;;;;8.43;2.38;;;;;;;18.28;63.76;98979.59;4953123;29;20118;-82
2023/09/19 02:55:52;;;;;;;12.70;3.13;;;;;;;18.26;63.73;98976.22;4953297;29;20500;-81
2023/09/19 02:58:19;;;;;;;8.95;2.30;;;;;;;18.22;63.63;98981.91;4953585;29;20491;-82
2023/09/19 03:00:49;;;;;;;8.68;2.47;;;;;;;18.19;63.66;98981.34;4953202;29;20055;-81
2023/09/19 03:03:16;;;;;;;11.38;2.85;;;;;;;18.15;63.47;98982.66;4953276;29;20047;-81
2023/09/19 03:05:47;;;;;;;11.13;2.63;;;;;;;18.10;63.70;98997.28;4952501;29;20150;-82
2023/09/19 03:08:16;;;;;;;13.55;3.28;;;;;;;18.06;63.84;98985.22;4953762;29;20051;-82
2023/09/19 03:10:46;;;;;;;12.50;2.40;;;;;;;18.01;63.27;98982.19;4951991;29;20052;-81
2023/09/19 03:13:14;;;;;;;11.05;2.63;;;;;;;17.97;63.60;98988.81;4953241;28;20154;-81
2023/09/19 03:15:44;;;;;;;12.02;2.85;;;;;;;17.93;63.74;98984.78;4953396;29;20051;-81
2023/09/19 03:18:11;;;;;;;9.23;2.83;;;;;;;17.90;64.32;98987.78;4952020;29;20062;-81
2023/09/19 03:20:38;;;;;;;11.75;2.88;;;;;;;17.84;63.85;98992.72;4952885;29;20047;-81
2023/09/19 03:23:06;;;;;;;12.35;3.25;;;;;;;17.81;64.17;98998.38;4952977;29;20059;-82
2023/09/19 03:25:35;;;;;;;9.52;2.47;;;;;;;17.77;64.56;99002.31;4953007;29;20067;-82
2023/09/19 03:28:05;;;;;;;12.13;2.67;;;;;;;17.77;64.50;99001.47;4953176;28;20538;-82
2023/09/19 03:30:33;;;;;;;10.30;2.92;;;;;;;17.76;64.52;99010.44;4952782;29;20540;-81
2023/09/19 03:33:00;;;;;;;7.22;2.63;;;;;;;17.74;64.72;99013.25;4952465;29;20500;-81
2023/09/19 03:35:27;;;;;;;12.43;2.97;;;;;;;17.74;64.81;99007.94;4951976;29;20043;-81
2023/09/19 03:37:53;;;;;;;12.35;3.20;;;;;;;17.74;65.18;99007.09;4952945;29;20534;-81
2023/09/19 03:40:21;;;;;;;14.23;3.05;;;;;;;17.74;64.93;98999.97;4952764;29;20078;-82
2023/09/19 03:42:48;;;;;;;13.93;3.08;;;;;;;17.75;65.16;98996.28;4952497;28;20051;-81
2023/09/19 03:45:16;;;;;;;9.00;3.13;;;;;;;17.75;64.85;99004.28;4953106;29;20089;-81
2023/09/19 03:47:42;;;;;;;13.57;3.75;;;;;;;17.77;64.98;99001.47;4952773;29;20051;-81
2023/09/19 03:50:15;;;;;;;10.63;3.00;;;;;;;17.75;64.64;98990.97;4953012;29;20055;-82
2023/09/19 03:52:42;;;;;;;16.85;3.63;;;;;;;17.75;64.91;98993.63;4952055;29;20403;-82
2023/09/19 03:55:09;;;;;;;12.07;3.08;;;;;;;17.75;64.76;98996.28;4953853;28;20058;-82
2023/09/19 03:57:36;;;;;;;10.55;3.20;;;;;;;17.73;64.49;99000.09;4956811;28;20070;-83
2023/09/19 04:00:14;;;;;;;13.70;3.13;;;;;;;17.70;64.66;99012.75;4956638;28;20145;-81
2023/09/19 04:02:41;;;;;;;10.77;3.15;;;;;;;17.69;64.65;99020.88;4954117;29;20051;-83
2023/09/19 04:05:08;;;;;;;9.75;2.65;;;;;;;17.67;64.49;99023.69;4956769;29;20055;-82
2023/09/19 04:07:34;;;;;;;11.93;2.85;;;;;;;17.66;64.50;99010.53;4956667;29;20093;-81
2023/09/19 04:10:01;;;;;;;13.50;2.85;;;;;;;17.64;64.47;99020.50;4956558;29;20151;-81
2023/09/19 04:12:28;;;;;;;10.90;3.03;;;;;;;17.60;64.17;99019.13;4955726;29;20055;-82
2023/09/19 04:14:54;;;;;;;13.90;3.15;;;;;;;17.57;64.35;99023.75;4956493;29;20051;-82
2023/09/19 04:17:21;;;;;;;12.40;3.28;;;;;;;17.54;64.34;99013.41;4956648;29;20051;-81
2023/09/19 04:19:47;;;;;;;9.63;3.22;;;;;;;17.53;64.10;99016.25;4955179;29;20074;-81
2023/09/19 04:22:14;;;;;;;14.27;2.88;;;;;;;17.52;64.38;99018.06;4955866;29;20043;-82
2023/09/19 04:24:40;;;;;;;14.02;3.10;;;;;;;17.51;63.86;99012.88;4956094;29;20050;-81
2023/09/19 04:27:07;;;;;;;8.93;2.60;;;;;;;17.47;64.28;99009.69;4956124;29;20530;-82
2023/09/19 04:29:33;;;;;;;7.57;2.67;;;;;;;17.44;64.13;99018.81;4956404;29;20051;-81
2023/09/19 04:32:00;;;;;;;12.68;2.55;;;;;;;17.44;63.71;99033.94;4955702;29;20052;-81
2023/09/19 04:34:27;;;;;;;13.45;2.83;;;;;;;17.39;64.13;99033.53;4954848;29;20142;-81
2023/09/19 04:36:54;;;;;;;11.13;2.67;;;;;;;17.36;63.95;99026.69;4956178;29;20061;-82
2023/09/19 04:39:20;;;;;;;9.18;2.33;;;;;;;17.33;63.79;99027.00;4955963;29;20049;-81
2023/09/19 04:41:47;;;;;;;9.95;2.50;;;;;;;17.29;63.83;99026.47;4955560;28;20106;-81
2023/09/19 04:44:15;;;;;;;12.30;2.80;;;;;;;17.27;64.14;99017.78;4955740;29;20051;-81
2023/09/19 04:46:42;;;;;;;11.85;3.03;;;;;;;17.23;63.95;99016.41;4956015;29;20089;-81
2023/09/19 04:49:09;;;;;;;10.70;2.55;;;;;;;17.19;63.97;99026.50;4956005;29;20058;-82
2023/09/19 04:51:36;;;;;;;15.90;3.25;;;;;;;17.16;63.85;99024.16;4955616;29;20074;-81
2023/09/19 04:54:03;;;;;;;12.80;3.10;;;;;;;17.15;63.67;99034.94;4955269;29;20131;-81
2023/09/19 04:56:30;;;;;;;7.97;2.65;;;;;;;17.12;63.92;99043.22;4955690;29;20051;-83
2023/09/19 04:58:58;;;;;;;9.77;2.97;;;;;;;17.10;64.04;99048.69;4955862;29;20051;-81
2023/09/19 05:01:25;;;;;;;8.20;2.53;;;;;;;17.06;63.77;99060.59;4955547;29;20051;-82
2023/09/19 05:03:54;;;;;;;13.82;2.95;;;;;;;17.03;63.66;99069.69;4953716;29;20051;-81
2023/09/19 05:06:21;;;;;;;10.73;2.83;;;;;;;17.00;63.40;99069.97;4955527;28;20138;-83
2023/09/19 05:08:52;;;;;;;13.25;3.13;;;;;;;16.98;63.44;99081.72;4955443;29;20113;-82
2023/09/19 05:11:19;;;;;;;12.10;3.15;;;;;;;16.94;63.43;99075.88;4955553;29;20122;-81
2023/09/19 05:13:46;;;;;;;13.90;2.65;;;;;;;16.93;63.56;99084.81;4955041;29;20139;-81
2023/09/19 05:16:12;;;;;;;11.93;2.47;;;;;;;16.90;63.62;99090.44;4955536;29;20412;-81
2023/09/19 05:18:39;;;;;;;8.63;2.88;;;;;;;16.88;63.31;99093.22;4954207;29;20083;-82
2023/09/19 05:21:06;;;;;;;9.23;2.70;;;;;;;16.85;63.36;99084.72;4955263;29;20101;-83
2023/09/19 05:23:32;;;;;;;13.80;2.92;;;;;;;16.84;63.28;99091.00;4954566;29;20135;-81
2023/09/19 05:25:59;;;;;;;9.90;2.55;;;;;;;16.80;63.18;99083.34;4954007;29;20069;-81
2023/09/19 05:28:26;;;;;;;9.57;2.60;;;;;;;16.78;63.07;99092.41;4955365;29;20051;-82
2023/09/19 05:30:53;;;;;;;9.13;2.28;;;;;;;16.75;63.19;99096.19;4953884;29;20101;-81
2023/09/19 05:33:20;;;;;;;11.90;2.60;;;;;;;16.71;63.21;99089.50;4954607;29;20055;-80
2023/09/19 05:35:49;;;;;;;11.00;2.83;;;;;;;16.68;62.68;99095.94;4954692;29;20059;-82
2023/09/19 05:38:18;;;;;;;13.18;2.90;;;;;;;16.68;63.16;99095.13;4952592;29;20408;-81
2023/09/19 05:40:45;;;;;;;9.85;2.53;;;;;;;16.65;63.01;99098.06;4953559;29;20043;-81
2023/09/19 05:43:14;;;;;;;12.23;2.35;;;;;;;16.63;62.92;99097.38;4954619;29;20508;-80
2023/09/19 05:45:41;;;;;;;17.13;2.60;;;;;;;16.62;63.10;99095.66;4955118;29;20684;-81
2023/09/19 05:48:16;;;;;;;10.48;3.25;;;;;;;16.57;62.60;99090.81;4954395;29;20470;-81
2023/09/19 05:50:46;;;;;;;10.73;2.53;;;;;;;16.60;63.02;99087.03;4955621;29;20082;-83
2023/09/19 05:53:14;;;;;;;11.65;2.40;;;;;;;16.59;62.73;99090.66;4954117;29;20059;-81
2023/09/19 05:55:41;;;;;;;12.45;2.72;;;;;;;16.57;62.93;99092.59;4954173;29;20047;-80
2023/09/19 05:58:09;;;;;;;8.35;2.63;;;;;;;16.56;63.06;99085.63;4954057;29;20066;-83
2023/09/19 06:00:36;;;;;;;8.77;2.75;;;;;;;16.54;62.80;99091.94;4954002;29;20047;-79
2023/09/19 06:03:05;;;;;;;8.48;2.25;;;;;;;16.54;62.74;99097.25;4953659;29;20132;-81
2023/09/19 06:05:32;;;;;;;9.32;2.42;;;;;;;16.54;63.03;99102.56;4954848;29;20110;-84
2023/09/19 06:08:03;;;;;;;11.75;2.55;;;;;;;16.54;62.80;99094.59;4953921;29;20051;-81
2023/09/19 06:10:31;;;;;;;9.40;2.40;;;;;;;16.54;62.74;99107.88;4954089;29;20098;-80
2023/09/19 06:12:58;;;;;;;9.00;2.35;;;;;;;16.54;62.68;99118.50;4954007;29;20560;-84
2023/09/19 06:15:25;;;;;;;11.43;2.45;;;;;;;16.56;62.76;99114.84;4954080;28;20059;-83
2023/09/19 06:17:59;;;;;;;13.65;2.30;;;;;;;16.58;62.83;99112.88;4954182;28;20551;-81
2023/09/19 06:20:26;;;;;;;14.40;2.80;;;;;;;16.60;62.92;99103.78;4947226;29;20059;-81
2023/09/19 06:22:54;;;;;;;12.50;2.58;;;;;;;16.62;62.84;99107.16;4953121;29;20602;-81
2023/09/19 06:25:21;;;;;;;13.48;2.70;;;;;;;16.65;62.85;99090.06;4954517;28;20138;-81
2023/09/19 06:27:54;;;;;;;6.20;1.95;;;;;;;16.68;62.81;99092.47;4954449;28;20146;-81
2023/09/19 06:30:26;;;;;;;8.52;2.60;;;;;;;16.72;62.68;99093.84;4954273;29;20130;-81
2023/09/19 06:33:00;;;;;;;10.18;2.22;;;;;;;16.74;62.04;99086.56;4953267;29;20401;-80
2023/09/19 06:35:29;;;;;;;9.80;2.70;;;;;;;16.82;62.69;99098.28;4953151;29;20163;-80
2023/09/19 06:37:57;;;;;;;11.00;2.50;;;;;;;16.87;62.70;99085.41;4954371;28;20538;-82
2023/09/19 06:40:25;;;;;;;10.82;2.53;;;;;;;16.91;62.37;99100.06;4953909;29;20507;-81
2023/09/19 06:42:55;;;;;;;10.20;2.70;;;;;;;16.96;62.35;99116.44;4952411;29;20047;-81
2023/09/19 06:45:22;;;;;;;9.50;2.40;;;;;;;17.00;62.33;99123.13;4954421;29;20055;-80
2023/09/19 06:47:51;;;;;;;10.52;2.50;;;;;;;17.03;62.23;99119.34;4952848;29;20094;-80
2023/09/19 06:50:22;;;;;;;10.40;2.47;;;;;;;17.05;61.99;99120.91;4953560;29;20180;-84
2023/09/19 06:52:51;;;;;;;8.60;2.28;;;;;;;17.06;61.92;99127.91;4953387;29;20694;-81
2023/09/19 06:55:19;;;;;;;16.77;2.65;;;;;;;17.09;61.92;99140.09;4953314;28;20101;-81
2023/09/19 06:57:47;;;;;;;9.93;2.50;;;;;;;17.09;61.80;99131.25;4953894;29;20059;-81
2023/09/19 07:00:15;;;;;;;11.55;2.45;;;;;;;17.09;61.54;99142.75;4954157;29;20122;-80
2023/09/19 07:02:42;;;;;;;10.75;2.63;;;;;;;17.10;61.60;99139.09;4952071;29;20062;-81
2023/09/19 07:05:09;;;;;;;10.07;2.63;;;;;;;17.11;61.58;99142.56;4953704;29;20058;-79
2023/09/19 07:07:36;;;;;;;8.90;2.20;;;;;;;17.11;61.65;99147.88;4953362;28;20141;-83
2023/09/19 07:10:05;;;;;;;9.77;2.42;;;;;;;17.10;61.35;99154.19;4953585;29;20098;-80
2023/09/19 07:12:32;;;;;;;8.25;2.38;;;;;;;17.09;61.60;99149.88;4953485;29;20055;-90
2023/09/19 07:14:59;;;;;;;11.23;3.20;;;;;;;17.08;61.43;99143.69;4953805;29;20059;-80
2023/09/19 07:17:25;;;;;;;6.93;2.33;;;;;;;17.09;61.48;99149.88;4953733;29;20094;-80
2023/09/19 07:19:52;;;;;;;12.75;2.35;;;;;;;17.09;61.69;99145.41;4953761;29;20062;-80
2023/09/19 07:22:18;;;;;;;10.63;2.03;;;;;;;17.11;61.76;99156.72;4953245;29;20059;-83
2023/09/19 07:24:45;;;;;;;11.65;2.58;;;;;;;17.12;61.87;99152.25;4953252;29;20074;-80
2023/09/19 07:27:12;;;;;;;13.43;2.53;;;;;;;17.15;62.19;99150.13;4953574;29;20408;-81
2023/09/19 07:29:39;;;;;;;8.30;2.33;;;;;;;17.19;62.47;99138.22;4951480;28;20401;-81
2023/09/19 07:32:06;;;;;;;6.78;2.17;;;;;;;17.24;62.32;99140.44;4952038;29;20071;-81
2023/09/19 07:34:33;;;;;;;6.20;1.95;;;;;;;17.29;62.15;99135.53;4953042;29;20109;-80
2023/09/19 07:37:00;;;;;;;8.98;2.40;;;;;;;17.36;62.19;99127.78;4953131;29;20047;-81
2023/09/19 07:39:26;;;;;;;7.53;1.75;;;;;;;17.41;62.24;99136.16;4951477;29;20043;-81
2023/09/19 07:41:54;;;;;;;7.28;2.08;;;;;;;17.47;61.89;99141.88;4953694;28;20051;-80
2023/09/19 07:44:21;;;;;;;10.52;2.30;;;;;;;17.51;62.01;99141.44;4952552;29;20055;-81
2023/09/19 07:46:50;;;;;;;7.93;2.25;;;;;;;17.57;62.31;99138.19;4952049;29;20058;-80
2023/09/19 07:49:17;;;;;;;8.93;2.20;;;;;;;17.64;62.00;99148.25;4953191;29;20563;-80
2023/09/19 07:51:47;;;;;;;10.77;2.80;;;;;;;17.70;62.02;99144.97;4953482;28;20051;-89
2023/09/19 07:54:14;;;;;;;10.07;2.90;;;;;;;17.78;61.96;99149.53;4953317;29;20051;-81
2023/09/19 07:56:41;;;;;;;8.90;2.47;;;;;;;17.86;62.01;99154.13;4953457;29;20059;-83
2023/09/19 07:59:08;;;;;;;11.52;2.63;;;;;;;17.90;61.70;99158.19;4952817;29;20053;-80
2023/09/19 08:01:35;;;;;;;10.15;2.65;;;;;;;17.94;61.41;99168.38;4953122;29;20090;-79
2023/09/19 08:04:02;;;;;;;6.22;1.80;;;;;;;18.00;61.63;99156.28;4952849;29;20484;-80
2023/09/19 08:06:30;;;;;;;7.60;2.40;;;;;;;18.05;61.14;99158.50;4953281;29;20055;-80
2023/09/19 08:08:56;;;;;;;10.93;2.70;;;;;;;18.08;61.27;99159.06;4952868;29;20086;-81
2023/09/19 08:11:24;;;;;;;10.95;2.13;;;;;;;18.13;61.26;99171.91;4951830;29;20047;-80
2023/09/19 08:13:51;;;;;;;7.95;2.58;;;;;;;18.17;61.27;99164.47;4952854;29;20088;-83
2023/09/19 08:16:22;;;;;;;7.53;2.50;;;;;;;18.20;61.43;99167.66;4951785;29;20089;-80
2023/09/19 08:18:52;;;;;;;9.40;2.42;;;;;;;18.24;61.49;99154.84;4953097;29;20058;-81
2023/09/19 08:21:19;;;;;;;10.23;2.83;;;;;;;18.28;61.36;99174.88;4952813;29;20053;-80
2023/09/19 08:23:46;;;;;;;9.70;2.42;;;;;;;18.32;61.70;99168.25;4951338;29;20122;-80
2023/09/19 08:26:12;;;;;;;11.43;2.72;;;;;;;18.37;61.63;99167.81;4953069;29;20090;-80
2023/09/19 08:28:42;;;;;;;7.85;2.40;;;;;;;18.42;61.42;99170.00;4951601;29;20055;-82
2023/09/19 08:31:08;;;;;;;9.05;2.55;;;;;;;18.49;61.56;99171.06;4952606;29;20047;-80
2023/09/19 08:33:36;;;;;;;10.60;2.42;;;;;;;18.55;61.13;99177.63;4951469;29;20051;-81
2023/09/19 08:36:04;;;;;;;11.63;2.55;;;;;;;18.59;61.39;99171.84;4952732;29;20077;-82
2023/09/19 08:38:33;;;;;;;8.20;2.60;;;;;;;18.65;61.11;99169.53;4952953;29;20134;-80
2023/09/19 08:41:00;;;;;;;13.23;3.28;;;;;;;18.70;60.77;99175.25;4952393;28;20413;-82
2023/09/19 08:43:27;;;;;;;9.88;2.92;;;;;;;18.73;61.17;99181.09;4956059;28;20047;-80
2023/09/19 08:46:11;;;;;;;11.98;2.50;;;;;;;18.74;59.74;99184.59;4956360;29;20582;-81
2023/09/19 08:49:03;;;;;;;7.95;2.53;;;;;;;18.79;59.74;99178.78;4955500;29;20090;-81
2023/09/19 08:51:45;;;;;;;12.02;2.83;;;;;;;18.86;59.92;99178.03;4956091;29;20071;-80
2023/09/19 08:54:26;;;;;;;9.38;2.65;;;;;;;18.92;59.54;99175.72;4956439;28;20059;-79
2023/09/19 08:56:54;;;;;;;8.57;2.17;;;;;;;18.99;60.31;99174.94;4955532;29;20048;-80
2023/09/19 08:59:26;;;;;;;8.40;2.40;;;;;;;19.04;60.65;99184.31;4955950;28;20043;-78
2023/09/19 09:01:54;;;;;;;9.85;2.72;;;;;;;19.10;60.47;99186.41;4951785;29;20055;-79
2023/09/19 09:04:22;;;;;;;13.18;3.17;;;;;;;19.16;60.16;99187.56;4955125;29;20506;-81
2023/09/19 09:06:53;;;;;;;11.45;3.03;;;;;;;19.20;59.84;99204.94;4956090;29;20101;-84
2023/09/19 09:09:20;;;;;;;8.40;2.67;;;;;;;19.23;59.63;99189.47;4955833;29;20106;-82
2023/09/19 09:11:50;;;;;;;11.55;2.83;;;;;;;19.28;59.86;99207.66;4954310;29;20061;-80
2023/09/19 09:14:17;;;;;;;10.43;3.08;;;;;;;19.30;59.61;99184.34;4954016;29;20047;-80
2023/09/19 09:16:45;;;;;;;10.10;2.13;;;;;;;19.32;59.46;99187.66;4954026;29;20421;-83
2023/09/19 09:19:13;;;;;;;9.85;2.63;;;;;;;19.36;59.31;99190.88;4955760;29;20055;-79
2023/09/19 09:21:40;;;;;;;7.38;2.22;;;;;;;19.38;59.44;99184.38;4954236;29;20051;-84
2023/09/19 09:24:29;;;;;;;8.02;2.60;;;;;;;19.38;58.51;99181.72;4955024;28;20050;-80
2023/09/19 09:26:57;;;;;;;11.10;3.03;;;;;;;19.50;59.34;99184.94;4955898;29;20195;-80
2023/09/19 09:29:43;;;;;;;11.68;2.67;;;;;;;19.52;58.14;99184.78;4955704;29;20130;-80
2023/09/19 09:32:36;;;;;;;9.35;2.80;;;;;;;19.55;57.00;99178.28;4954087;29;20146;-80
2023/09/19 09:35:14;;;;;;;15.50;2.95;;;;;;;19.62;57.30;99187.31;4951957;29;20106;-82
2023/09/19 09:37:43;;;;;;;10.35;2.95;;;;;;;19.66;58.25;99191.31;4955243;29;20496;-80
2023/09/19 09:42:39;;;;;;;12.02;2.55;;;;;;;19.76;58.71;99177.84;4955307;29;20057;-81
2023/09/19 09:45:13;;;;;;;7.95;2.60;;;;;;;19.81;57.47;99170.19;4955250;29;20385;-80
2023/09/19 09:47:49;;;;;;;9.13;2.72;;;;;;;19.89;57.79;99177.41;4955327;29;20069;-82
2023/09/19 09:53:32;;;;;;;7.55;2.47;;;;;;;20.09;57.37;99174.47;4954172;28;20058;-80
2023/09/19 09:56:14;;;;;;;8.52;2.45;;;;;;;20.22;58.23;99176.66;4953896;29;20137;-82
2023/09/19 09:58:55;;;;;;;9.40;3.08;;;;;;;20.28;56.03;99192.88;4955065;29;20091;-83
2023/09/19 10:01:26;;;;;;;10.52;2.53;;;;;;;20.40;57.80;99184.53;4954832;29;20122;-80
2023/09/19 10:04:00;;;;;;;10.90;2.83;;;;;;;20.47;56.25;99182.00;4953280;29;20078;-80
2023/09/19 10:06:47;;;;;;;11.15;2.55;;;;;;;20.54;56.33;99180.34;4953821;29;20052;-81
2023/09/19 10:09:19;;;;;;;6.13;2.22;;;;;;;20.65;57.30;99171.16;4954804;29;20079;-80
2023/09/19 10:11:56;;;;;;;8.03;2.20;;;;;;;20.72;56.59;99174.84;4954819;29;20051;-82
2023/09/19 10:14:29;;;;;;;13.55;2.65;;;;;;;20.79;56.18;99181.16;4954651;28;20814;-80
2023/09/19 10:17:03;;;;;;;8.13;2.42;;;;;;;20.89;57.05;99174.88;4954756;29;20050;-80
2023/09/19 10:19:36;;;;;;;9.77;2.80;;;;;;;20.93;54.75;99163.63;4954408;29;20090;-81
2023/09/19 10:22:05;;;;;;;10.25;2.78;;;;;;;21.02;55.60;99166.31;4954373;29;20055;-80
2023/09/19 10:24:36;;;;;;;9.65;2.63;;;;;;;21.05;54.72;99165.97;4954352;29;20055;-80
2023/09/19 10:27:19;;;;;;;10.73;3.27;;;;;;;21.08;55.25;99173.63;4953569;29;20055;-84
2023/09/19 10:29:50;;;;;;;7.32;2.80;;;;;;;21.08;54.65;99181.66;4954149;29;20287;-79
2023/09/19 10:32:19;;;;;;;8.50;2.40;;;;;;;21.11;55.45;99180.50;4952996;29;20523;-83
2023/09/19 10:34:49;;;;;;;11.02;2.72;;;;;;;21.11;54.85;99175.97;4954053;29;20535;-80
2023/09/19 10:37:22;;;;;;;10.45;2.63;;;;;;;21.14;52.67;99174.81;4954731;29;20055;-80
2023/09/19 10:39:49;;;;;;;;;;;;;;;21.18;54.75;99165.44;4953705;29;20083;-80
2023/09/19 10:42:19;;;;;;;10.55;2.25;;;;;;;21.30;55.17;99168.59;4954169;29;19977;-79
2023/09/19 10:44:55;;;;;;;7.30;2.42;;;;;;;21.36;55.51;99162.53;4954127;29;20139;-79
2023/09/19 10:47:24;;;;;;;8.98;2.78;;;;;;;21.47;56.06;99164.84;4954226;29;20428;-82
2023/09/19 10:49:51;;;;;;;13.55;2.83;;;;;;;21.59;55.74;99167.97;4954217;29;20048;-80
2023/09/19 10:52:23;;;;;;;9.38;2.80;;;;;;;21.71;54.77;99165.72;4953345;29;20047;-80
2023/09/19 10:54:54;;;;;;;11.88;2.85;;;;;;;21.84;54.88;99186.66;4953969;29;20130;-79
2023/09/19 10:57:27;;;;;;;12.90;2.95;;;;;;;21.93;53.72;99174.03;4954301;29;20496;-79
2023/09/19 11:00:21;;;;;;;10.02;2.80;;;;;;;21.99;52.18;99183.22;4954424;29;20106;-81
2023/09/19 11:03:30;;;;;;;8.45;2.65;;;;;;;22.07;53.84;99182.31;4953342;29;20448;-80
2023/09/19 11:06:04;;;;;;;10.63;2.90;;;;;;;22.20;53.85;99171.84;4894198;29;20057;-80
2023/09/19 11:11:40;;;;;;;13.88;2.97;;;;;;;22.58;54.72;99170.25;4953808;29;20135;-80
2023/09/19 11:14:25;;;;;;;10.90;2.50;;;;;;;22.79;53.66;99177.59;4953506;29;20445;-79
2023/09/19 11:17:15;;;;;;;6.47;2.42;;;;;;;22.96;52.66;99164.03;4952620;29;20138;-79
2023/09/19 11:22:53;;;;;;;8.38;2.80;;;;;;;23.04;51.03;99172.00;4953076;29;20709;-80
2023/09/19 11:25:47;;;;;;;8.38;2.63;;;;;;;22.96;50.57;99164.88;4953556;29;20062;-81
2023/09/19 11:28:18;;;;;;;9.77;2.65;;;;;;;22.93;51.86;99175.97;4953683;29;20138;-79
2023/09/19 11:30:46;;;;;;;10.50;2.58;;;;;;;22.85;51.47;99162.63;4953696;29;20055;-79
2023/09/19 11:33:25;;;;;;;7.75;2.90;;;;;;;22.76;50.60;99165.41;4951733;29;20077;-80
2023/09/19 11:36:02;;;;;;;14.55;3.08;;;;;;;22.71;50.30;99169.63;4952595;29;20500;-83
2023/09/19 11:38:44;;;;;;;9.63;2.70;;;;;;;22.67;51.03;99157.59;4953356;28;20063;-81
2023/09/19 11:41:20;;;;;;;8.98;2.50;;;;;;;22.69;50.99;99155.56;4953362;29;20135;-84
2023/09/19 11:44:09;;;;;;;11.13;3.25;;;;;;;22.77;52.74;99158.19;4952552;29;20043;-81
2023/09/19 11:46:51;;;;;;;8.43;2.53;;;;;;;22.84;50.90;99166.34;4916951;29;20138;-84
2023/09/19 11:49:23;;;;;;;9.70;2.67;;;;;;;22.94;50.89;99153.47;4953252;29;20062;-81
2023/09/19 11:51:53;;;;;;;8.10;3.00;;;;;;;22.97;49.90;99142.38;4953182;29;20067;-81
2023/09/19 11:54:24;;;;;;;8.23;2.67;;;;;;;22.98;51.11;99152.09;4952760;29;20135;-81
2023/09/19 11:56:53;;;;;;;8.50;3.00;;;;;;;22.96;50.43;99156.00;4953394;29;20083;-80